Terminal Aerodrome Forecast
Issued by NWS

Home | Current Version | Previous Version | Text Only | Print | Product List | Glossary On
Versions: 1 2 3 4 5 6 7 8 9 10 11 12 13 14 15 16 17
611
FTUS43 KDVN 081730
TAFBRL
TAF
KBRL 081730Z 0818/0918 32017G24KT 6SM -SN BR BKN025 OVC035
      TEMPO 0818/0820 5SM -SHSN BR BKN019 OVC025
     FM082000 32017G25KT 5SM -SHSN BR BKN022 OVC035
     FM090100 32017KT 6SM -SN BR OVC028
     FM091600 32017G24KT 6SM -SN BR OVC030=

USA.gov is the U.S. government's official web portal to all federal, state and local government web resources and services.